createdAt,value
2019-05-26T00:01:39.183Z,100335.81
2019-05-26T00:04:08.319Z,100331.86
2019-05-26T00:06:37.428Z,100333.23
2019-05-26T00:09:07.330Z,100327.52
2019-05-26T00:11:36.482Z,100330.16
2019-05-26T00:14:05.630Z,100326.64
2019-05-26T00:16:34.729Z,100322.70
2019-05-26T00:19:03.951Z,100323.59
2019-05-26T00:21:33.092Z,100318.79
2019-05-26T00:24:02.269Z,100321.44
2019-05-26T00:26:31.432Z,100321.04
2019-05-26T00:29:00.556Z,100316.65
2019-05-26T00:31:29.719Z,100313.58
2019-05-26T00:33:58.856Z,100319.74
2019-05-26T00:36:28.002Z,100314.91
2019-05-26T00:38:57.147Z,100310.52
2019-05-26T00:41:26.288Z,100307.44
2019-05-26T00:43:55.443Z,100302.60
2019-05-26T00:46:24.670Z,100303.05
2019-05-26T00:48:53.818Z,100294.30
2019-05-26T00:51:22.937Z,100302.23
2019-05-26T00:53:52.075Z,100297.83
2019-05-26T00:56:21.265Z,100293.44
2019-05-26T00:58:50.431Z,100289.94
2019-05-26T01:01:19.568Z,100289.94
2019-05-26T01:03:48.674Z,100285.99
2019-05-26T01:06:17.815Z,100288.20
2019-05-26T01:08:46.963Z,100289.97
2019-05-26T01:11:16.141Z,100287.78
2019-05-26T01:13:45.298Z,100290.43
2019-05-26T01:16:14.501Z,100287.35
2019-05-26T01:18:43.655Z,100290.88
2019-05-26T01:21:12.852Z,100291.77
2019-05-26T01:23:41.966Z,100292.20
2019-05-26T01:26:11.101Z,100279.45
2019-05-26T01:28:40.247Z,100275.95
2019-05-26T01:31:09.392Z,100275.96
2019-05-26T01:33:38.544Z,100275.96
2019-05-26T01:36:07.673Z,100272.01
2019-05-26T01:38:37.192Z,100271.56
2019-05-26T01:41:06.396Z,100265.86
2019-05-26T01:43:35.554Z,100268.94
2019-05-26T01:46:05.936Z,100271.18
2019-05-26T01:48:35.009Z,100275.58
2019-05-26T01:51:04.232Z,100272.06
2019-05-26T01:53:33.478Z,100269.87
2019-05-26T01:56:02.618Z,100272.51
2019-05-26T01:58:31.719Z,100268.55
2019-05-26T02:01:00.889Z,100271.20
2019-05-26T02:03:29.986Z,100267.69
2019-05-26T02:05:59.125Z,100268.56
2019-05-26T02:08:38.835Z,100267.70
2019-05-26T02:10:59.133Z,100271.22
2019-05-26T02:13:28.276Z,100265.51
2019-05-26T02:15:57.524Z,100265.95
2019-05-26T02:18:26.644Z,100263.80
2019-05-26T02:20:55.774Z,100262.03
2019-05-26T02:23:24.933Z,100264.68
2019-05-26T02:25:54.078Z,100265.56
2019-05-26T02:28:23.252Z,100258.09
2019-05-26T02:30:52.415Z,100254.14
2019-05-26T02:33:21.554Z,100257.66
2019-05-26T02:35:50.661Z,100252.82
2019-05-26T02:38:20.001Z,100256.34
2019-05-26T02:40:49.091Z,100253.71
2019-05-26T02:43:18.374Z,100250.64
2019-05-26T02:45:47.501Z,100256.34
2019-05-26T02:48:16.647Z,100257.23
2019-05-26T02:50:45.785Z,100255.91
2019-05-26T02:53:14.917Z,100251.52
2019-05-26T02:55:44.158Z,100255.47
2019-05-26T02:58:13.263Z,100254.19
2019-05-26T03:00:44.298Z,100252.88
2019-05-26T03:03:14.519Z,100248.92
2019-05-26T03:05:45.715Z,100248.92
2019-05-26T03:08:15.427Z,100241.01
2019-05-26T03:10:45.395Z,100240.13
2019-05-26T03:13:16.026Z,100247.17
2019-05-26T03:15:48.204Z,100242.77
2019-05-26T03:18:18.572Z,100237.50
2019-05-26T03:20:47.839Z,100235.75
2019-05-26T03:23:17.629Z,100234.42
2019-05-26T03:25:46.780Z,100235.75
2019-05-26T03:28:15.906Z,100234.87
2019-05-26T03:30:45.040Z,100233.55
2019-05-26T03:33:14.265Z,100232.23
2019-05-26T03:35:43.392Z,100235.30
2019-05-26T03:38:12.523Z,100232.23
2019-05-26T03:40:41.625Z,100234.88
2019-05-26T03:43:10.807Z,100229.59
2019-05-26T03:46:20.592Z,100241.46
2019-05-26T03:48:50.731Z,100231.35
2019-05-26T03:51:19.941Z,100229.59
2019-05-26T03:53:49.088Z,100226.08
2019-05-26T03:56:18.195Z,100226.52
2019-05-26T03:58:47.353Z,100219.92
2019-05-26T04:01:16.501Z,100215.97
2019-05-26T04:03:45.741Z,100208.05
2019-05-26T04:06:14.862Z,100208.92
2019-05-26T04:08:43.978Z,100204.09
2019-05-26T04:11:13.115Z,100196.61
2019-05-26T04:13:42.217Z,100198.77
2019-05-26T04:16:11.353Z,100198.33
2019-05-26T04:18:40.447Z,100196.13
2019-05-26T04:21:09.598Z,100191.29
2019-05-26T04:23:38.753Z,100191.28
2019-05-26T04:26:07.933Z,100190.84
2019-05-26T04:28:37.050Z,100187.76
2019-05-26T04:31:06.208Z,100189.95
2019-05-26T04:33:35.370Z,100180.70
2019-05-26T04:36:04.628Z,100185.48
2019-05-26T04:38:33.761Z,100184.14
2019-05-26T04:41:02.885Z,100180.16
2019-05-26T04:43:32.024Z,100189.80
2019-05-26T04:46:01.175Z,100184.47
2019-05-26T04:48:30.396Z,100190.14
2019-05-26T04:50:59.530Z,100187.47
2019-05-26T04:53:28.661Z,100189.18
2019-05-26T04:55:57.813Z,100186.08
2019-05-26T04:58:26.948Z,100180.77
2019-05-26T05:00:56.138Z,100182.91
2019-05-26T05:03:25.264Z,100179.77
2019-05-26T05:05:54.394Z,100182.81
2019-05-26T05:08:23.529Z,100190.22
2019-05-26T05:10:52.817Z,100182.25
2019-05-26T05:13:24.945Z,100183.09
2019-05-26T05:15:52.823Z,100182.57
2019-05-26T05:18:21.990Z,100176.80
2019-05-26T05:20:51.126Z,100179.37
2019-05-26T05:23:20.345Z,100172.28
2019-05-26T05:25:49.463Z,100173.52
2019-05-26T05:28:18.637Z,100172.12
2019-05-26T05:30:47.717Z,100175.96
2019-05-26T05:33:16.865Z,100174.12
2019-05-26T05:35:46.002Z,100165.61
2019-05-26T05:38:15.181Z,100166.85
2019-05-26T05:40:58.286Z,100164.53
2019-05-26T05:43:15.216Z,100163.50
2019-05-26T05:45:44.376Z,100157.23
2019-05-26T05:48:13.502Z,100153.53
2019-05-26T05:50:42.650Z,100154.23
2019-05-26T05:53:11.788Z,100152.31
2019-05-26T05:55:40.942Z,100149.05
2019-05-26T05:58:10.093Z,100145.37
2019-05-26T06:00:39.261Z,99865.15
2019-05-26T06:03:08.378Z,100150.77
2019-05-26T06:05:37.501Z,100147.92
2019-05-26T06:08:06.608Z,100146.40
2019-05-26T06:10:35.746Z,100149.29
2019-05-26T06:13:04.916Z,100141.98
2019-05-26T06:15:34.055Z,100141.84
2019-05-26T06:18:03.283Z,100146.13
2019-05-26T06:20:32.368Z,100143.28
2019-05-26T06:23:01.530Z,100143.27
2019-05-26T06:25:30.622Z,100143.00
2019-05-26T06:27:59.835Z,100138.80
2019-05-26T06:30:28.981Z,100138.52
2019-05-26T06:32:58.102Z,100139.94
2019-05-26T06:35:27.233Z,100145.70
2019-05-26T06:37:56.366Z,100135.59
2019-05-26T06:40:25.571Z,100142.31
2019-05-26T06:42:54.693Z,100140.23
2019-05-26T06:45:23.831Z,100138.61
2019-05-26T06:47:52.942Z,100136.45
2019-05-26T06:50:22.106Z,100141.05
2019-05-26T06:52:51.256Z,100139.66
2019-05-26T06:55:20.442Z,100138.63
2019-05-26T06:57:49.618Z,100141.09
2019-05-26T07:00:18.946Z,100140.05
2019-05-26T07:02:48.100Z,100138.48
2019-05-26T07:05:18.496Z,100143.84
2019-05-26T07:07:47.885Z,100141.80
2019-05-26T07:10:17.513Z,100146.08
2019-05-26T07:12:46.663Z,100140.16
2019-05-26T07:15:15.787Z,100129.84
2019-05-26T07:17:44.921Z,100130.78
2019-05-26T07:20:14.450Z,100129.63
2019-05-26T07:22:43.569Z,100128.03
2019-05-26T07:25:16.050Z,100123.03
2019-05-26T07:27:45.175Z,100116.00
2019-05-26T07:30:14.905Z,100119.34
2019-05-26T07:32:44.023Z,100126.55
2019-05-26T07:35:13.156Z,100117.41
2019-05-26T07:37:42.287Z,100114.63
2019-05-26T07:40:11.634Z,100092.09
2019-05-26T07:42:40.746Z,100110.31
2019-05-26T07:45:10.176Z,100107.45
2019-05-26T07:47:39.318Z,100111.92
2019-05-26T07:50:09.269Z,100115.09
2019-05-26T07:52:38.446Z,100104.52
2019-05-26T07:55:08.209Z,100101.17
2019-05-26T07:57:37.363Z,100098.98
2019-05-26T08:00:06.771Z,100105.31
2019-05-26T08:02:35.911Z,100111.70
2019-05-26T08:05:05.640Z,100112.03
2019-05-26T08:07:34.796Z,100115.98
2019-05-26T08:10:04.418Z,100099.54
2019-05-26T08:12:33.599Z,100106.59
2019-05-26T08:15:02.711Z,100098.27
2019-05-26T08:17:31.855Z,100112.98
2019-05-26T08:20:01.016Z,100107.67
2019-05-26T08:22:30.141Z,100108.33
2019-05-26T08:24:59.296Z,100109.14
2019-05-26T08:27:28.406Z,100106.47
2019-05-26T08:29:57.563Z,100109.50
2019-05-26T08:32:26.692Z,100108.20
2019-05-26T08:34:55.878Z,100107.91
2019-05-26T08:37:25.016Z,100104.08
2019-05-26T08:39:55.795Z,100112.81
2019-05-26T08:42:31.909Z,100098.25
2019-05-26T08:44:55.800Z,100093.03
2019-05-26T08:47:24.970Z,100098.37
2019-05-26T08:49:54.108Z,100099.15
2019-05-26T08:52:23.217Z,100095.42
2019-05-26T08:54:52.333Z,100095.66
2019-05-26T08:57:21.491Z,100089.95
2019-05-26T08:59:50.644Z,100089.34
2019-05-26T09:02:19.770Z,100085.19
2019-05-26T09:04:49.000Z,100088.27
2019-05-26T09:07:18.146Z,100074.76
2019-05-26T09:09:47.268Z,100072.03
2019-05-26T09:12:16.411Z,100064.92
2019-05-26T09:14:45.600Z,100065.70
2019-05-26T09:17:14.732Z,100064.98
2019-05-26T09:19:43.876Z,100067.97
2019-05-26T09:22:13.015Z,100063.83
2019-05-26T09:24:42.132Z,100052.12
2019-05-26T09:27:11.328Z,100053.91
2019-05-26T09:29:40.440Z,100062.59
2019-05-26T09:32:09.597Z,100061.36
2019-05-26T09:34:38.713Z,100061.99
2019-05-26T09:37:07.988Z,100056.38
2019-05-26T09:39:37.132Z,100053.00
2019-05-26T09:42:06.374Z,100056.54
2019-05-26T09:44:35.505Z,100056.95
2019-05-26T09:47:04.779Z,100055.56
2019-05-26T09:49:33.985Z,100065.56
2019-05-26T09:52:03.143Z,100049.61
2019-05-26T09:54:32.293Z,100048.48
2019-05-26T09:57:01.416Z,100054.05
2019-05-26T09:59:30.565Z,100054.28
2019-05-26T10:01:59.713Z,100049.03
2019-05-26T10:04:28.840Z,100051.70
2019-05-26T10:06:57.964Z,100044.08
2019-05-26T10:09:27.138Z,100055.77
2019-05-26T10:11:56.346Z,100058.95
2019-05-26T10:14:25.488Z,100054.29
2019-05-26T10:16:54.635Z,100047.68
2019-05-26T10:19:23.755Z,100053.44
2019-05-26T10:21:52.888Z,100045.06
2019-05-26T10:24:22.008Z,100048.02
2019-05-26T10:26:51.138Z,100050.77
2019-05-26T10:29:20.260Z,100048.89
2019-05-26T10:31:49.426Z,100040.83
2019-05-26T10:34:18.577Z,100041.98
2019-05-26T10:36:47.765Z,100043.58
2019-05-26T10:39:16.896Z,100037.15
2019-05-26T10:41:46.002Z,100031.53
2019-05-26T10:44:15.157Z,100043.70
2019-05-26T10:46:44.288Z,100045.66
2019-05-26T10:49:13.438Z,100046.63
2019-05-26T10:51:42.549Z,100045.06
2019-05-26T10:54:11.718Z,100050.00
2019-05-26T10:56:40.851Z,100050.63
2019-05-26T10:59:09.969Z,100041.30
2019-05-26T11:01:39.153Z,100039.06
2019-05-26T11:04:08.266Z,100036.44
2019-05-26T11:06:37.801Z,100038.03
2019-05-26T11:09:11.270Z,100028.75
2019-05-26T11:11:49.321Z,100030.25
2019-05-26T11:14:18.447Z,100028.73
2019-05-26T11:16:47.608Z,100019.42
2019-05-26T11:19:16.717Z,100015.81
2019-05-26T11:21:45.867Z,100016.43
2019-05-26T11:24:14.985Z,100007.64
2019-05-26T11:26:44.115Z,100011.53
2019-05-26T11:29:13.253Z,100004.78
2019-05-26T11:31:42.389Z,100006.61
2019-05-26T11:34:11.528Z,100001.84
2019-05-26T11:36:40.723Z,99999.58
2019-05-26T11:39:09.855Z,100003.39
2019-05-26T11:41:39.007Z,99998.02
2019-05-26T11:44:17.464Z,100010.20
2019-05-26T11:46:38.949Z,100009.84
2019-05-26T11:49:08.067Z,99992.14
2019-05-26T11:51:37.288Z,99992.16
2019-05-26T11:54:06.446Z,99985.20
2019-05-26T11:56:35.561Z,99995.87
2019-05-26T11:59:04.834Z,99995.00
2019-05-26T12:01:33.962Z,99985.59
2019-05-26T12:04:04.211Z,99982.64
2019-05-26T12:06:33.300Z,99981.80
2019-05-26T12:09:02.432Z,99988.80
2019-05-26T12:11:31.531Z,99983.69
2019-05-26T12:14:00.760Z,99987.94
2019-05-26T12:16:29.894Z,99983.30
2019-05-26T12:18:59.011Z,99992.45
2019-05-26T12:21:30.963Z,99981.73
2019-05-26T12:24:00.066Z,99981.73
2019-05-26T12:26:29.195Z,99977.91
2019-05-26T12:28:58.284Z,99973.92
2019-05-26T12:31:27.412Z,99970.95
2019-05-26T12:33:56.524Z,99961.61
2019-05-26T12:36:25.751Z,99963.74
2019-05-26T12:38:55.031Z,99962.18
2019-05-26T12:41:24.259Z,99953.67
2019-05-26T12:43:53.367Z,99950.95
2019-05-26T12:46:22.523Z,99947.45
2019-05-26T12:48:51.652Z,99946.41
2019-05-26T12:51:20.793Z,99938.80
2019-05-26T12:53:49.897Z,99934.88
2019-05-26T12:56:19.035Z,99932.39
2019-05-26T12:58:48.172Z,99938.27
2019-05-26T13:01:17.297Z,99937.00
2019-05-26T13:03:46.416Z,99932.11
2019-05-26T13:06:17.550Z,99941.94
2019-05-26T13:08:46.379Z,99936.13
2019-05-26T13:11:15.519Z,99928.23
2019-05-26T13:13:44.661Z,99939.80
2019-05-26T13:16:13.804Z,99923.92
2019-05-26T13:21:57.426Z,99922.84
2019-05-26T13:24:26.627Z,99912.84
2019-05-26T13:26:55.710Z,99923.63
2019-05-26T13:29:31.887Z,99912.59
2019-05-26T13:32:00.989Z,99919.44
2019-05-26T13:34:30.155Z,99913.42
2019-05-26T13:36:59.273Z,99918.91
2019-05-26T13:39:28.409Z,99913.53
2019-05-26T13:41:57.547Z,99916.02
2019-05-26T13:44:26.697Z,99897.34
2019-05-26T13:46:55.815Z,99910.68
2019-05-26T13:49:24.955Z,99905.34
2019-05-26T13:51:54.054Z,99901.11
2019-05-26T13:54:23.228Z,99900.27
2019-05-26T13:56:52.397Z,99908.64
2019-05-26T13:59:21.557Z,99910.39
2019-05-26T14:01:50.787Z,99816.53
2019-05-26T14:04:19.939Z,99900.36
2019-05-26T14:06:49.062Z,99885.80
2019-05-26T14:09:18.199Z,99891.75
2019-05-26T14:11:47.358Z,99886.94
2019-05-26T14:14:16.512Z,99889.73
2019-05-26T14:16:47.452Z,99882.75
2019-05-26T14:19:18.889Z,99884.20
2019-05-26T14:21:48.053Z,99865.22
2019-05-26T14:24:17.165Z,99870.24
2019-05-26T14:26:46.293Z,99869.31
2019-05-26T14:29:15.425Z,99874.31
2019-05-26T14:31:44.540Z,99862.46
2019-05-26T14:34:13.663Z,99858.63
2019-05-26T14:36:42.795Z,99866.34
2019-05-26T14:39:19.522Z,99856.17
2019-05-26T14:41:48.732Z,99854.30
2019-05-26T14:44:17.887Z,99744.14
2019-05-26T14:46:47.011Z,99837.81
2019-05-26T14:49:16.154Z,99832.90
2019-05-26T14:51:45.274Z,99830.81
2019-05-26T14:54:14.415Z,99833.48
2019-05-26T14:56:43.564Z,99830.84
2019-05-26T14:59:12.693Z,99829.77
2019-05-26T15:01:41.808Z,99829.23
2019-05-26T15:04:10.951Z,99824.16
2019-05-26T15:06:54.200Z,99820.48
2019-05-26T15:09:32.107Z,99817.35
2019-05-26T15:12:01.468Z,99823.52
2019-05-26T15:14:30.593Z,99824.34
2019-05-26T15:16:59.724Z,99817.20
2019-05-26T15:19:28.857Z,99638.70
2019-05-26T15:21:57.991Z,99813.17
2019-05-26T15:24:27.175Z,99809.62
2019-05-26T15:26:56.312Z,99813.94
2019-05-26T15:29:26.025Z,99809.11
2019-05-26T15:31:55.169Z,99810.09
2019-05-26T15:34:25.192Z,99808.44
2019-05-26T15:36:54.329Z,99806.53
2019-05-26T15:39:23.449Z,99806.67
2019-05-26T15:41:52.610Z,99809.30
2019-05-26T15:44:21.739Z,99805.29
2019-05-26T15:46:50.876Z,99801.53
2019-05-26T15:49:20.059Z,99792.01
2019-05-26T15:51:49.198Z,99795.63
2019-05-26T15:54:20.312Z,99787.52
2019-05-26T15:56:49.608Z,99789.55
2019-05-26T15:59:18.794Z,99789.42
2019-05-26T16:01:47.992Z,99775.39
2019-05-26T16:04:17.113Z,99775.20
2019-05-26T16:06:46.266Z,99772.98
2019-05-26T16:09:15.371Z,99769.52
2019-05-26T16:11:44.525Z,99772.98
2019-05-26T16:14:13.687Z,99768.59
2019-05-26T16:16:42.815Z,99767.69
2019-05-26T16:19:11.969Z,99767.12
2019-05-26T16:21:41.126Z,99769.23
2019-05-26T16:24:10.285Z,99763.80
2019-05-26T16:26:39.482Z,99763.22
2019-05-26T16:29:08.650Z,99756.30
2019-05-26T16:31:37.768Z,99749.95
2019-05-26T16:34:06.924Z,99743.83
2019-05-26T16:36:36.079Z,99751.70
2019-05-26T16:39:07.139Z,99752.58
2019-05-26T16:41:36.244Z,99748.63
2019-05-26T16:44:05.388Z,99745.16
2019-05-26T16:46:34.611Z,99747.27
2019-05-26T16:49:03.743Z,99752.56
2019-05-26T16:51:32.861Z,99748.53
2019-05-26T16:54:02.019Z,99736.13
2019-05-26T16:56:31.196Z,99735.84
2019-05-26T16:59:00.386Z,99737.46
2019-05-26T17:01:29.525Z,99728.89
2019-05-26T17:03:58.657Z,99734.97
2019-05-26T17:06:27.918Z,99732.85
2019-05-26T17:08:57.046Z,99721.14
2019-05-26T17:11:26.424Z,99724.40
2019-05-26T17:13:55.764Z,99724.48
2019-05-26T17:16:24.923Z,99717.47
2019-05-26T17:18:54.142Z,99717.66
2019-05-26T17:21:23.362Z,99716.98
2019-05-26T17:23:52.496Z,99717.86
2019-05-26T17:26:21.646Z,99708.55
2019-05-26T17:28:50.774Z,99718.62
2019-05-26T17:31:19.939Z,99719.08
2019-05-26T17:33:49.072Z,99721.02
2019-05-26T17:36:18.248Z,99707.45
2019-05-26T17:38:47.370Z,99714.69
2019-05-26T17:41:16.524Z,99712.19
2019-05-26T17:43:45.674Z,99711.14
2019-05-26T17:46:15.341Z,99707.86
2019-05-26T17:48:44.534Z,99710.06
2019-05-26T17:51:13.674Z,99701.04
2019-05-26T17:53:42.833Z,99705.64
2019-05-26T17:56:11.964Z,99708.33
2019-05-26T17:58:41.118Z,99711.70
2019-05-26T18:01:10.298Z,99702.27
2019-05-26T18:03:39.417Z,99699.97
2019-05-26T18:06:08.916Z,99694.39
2019-05-26T18:08:38.072Z,99698.61
2019-05-26T18:11:07.297Z,99694.28
2019-05-26T18:13:36.420Z,99697.36
2019-05-26T18:16:05.813Z,99520.42
2019-05-26T18:18:34.931Z,99689.06
2019-05-26T18:21:04.224Z,99690.85
2019-05-26T18:23:33.388Z,99694.97
2019-05-26T18:26:02.506Z,99691.52
2019-05-26T18:28:31.669Z,99689.30
2019-05-26T18:31:00.801Z,99684.50
2019-05-26T18:33:29.979Z,99685.62
2019-05-26T18:35:59.097Z,99683.59
2019-05-26T18:38:28.268Z,99683.30
2019-05-26T18:40:57.398Z,99686.49
2019-05-26T18:43:26.543Z,99688.96
2019-05-26T18:45:55.679Z,99687.11
2019-05-26T18:48:24.790Z,99684.51
2019-05-26T18:50:53.936Z,99683.81
2019-05-26T18:53:23.116Z,99685.45
2019-05-26T18:55:52.239Z,99678.83
2019-05-26T18:58:21.427Z,99680.70
2019-05-26T19:00:50.760Z,99678.19
2019-05-26T19:03:19.990Z,99672.42
2019-05-26T19:05:49.084Z,99676.23
2019-05-26T19:08:18.218Z,99672.33
2019-05-26T19:10:47.430Z,99670.46
2019-05-26T19:13:16.551Z,99669.16
2019-05-26T19:15:45.743Z,99672.13
2019-05-26T19:18:20.047Z,99666.37
2019-05-26T19:20:45.739Z,99668.71
2019-05-26T19:23:14.893Z,99665.95
2019-05-26T19:25:44.025Z,99655.33
2019-05-26T19:28:13.180Z,99657.79
2019-05-26T19:30:45.485Z,99659.02
2019-05-26T19:33:13.531Z,99662.27
2019-05-26T19:35:42.676Z,99666.54
2019-05-26T19:38:11.835Z,99664.80
2019-05-26T19:40:41.006Z,99669.16
2019-05-26T19:43:10.256Z,99668.09
2019-05-26T19:45:39.360Z,99666.45
2019-05-26T19:48:08.530Z,99667.40
2019-05-26T19:50:37.914Z,99675.44
2019-05-26T19:53:07.047Z,99670.25
2019-05-26T19:55:36.209Z,99669.70
2019-05-26T19:58:06.182Z,99665.77
2019-05-26T20:00:35.382Z,99669.00
2019-05-26T20:03:04.602Z,99671.68
2019-05-26T20:05:33.680Z,99674.16
2019-05-26T20:08:02.826Z,99666.92
2019-05-26T20:10:31.932Z,99669.77
2019-05-26T20:13:01.080Z,99665.34
2019-05-26T20:15:30.215Z,99668.89
2019-05-26T20:17:59.411Z,99661.73
2019-05-26T20:20:28.543Z,99657.90
2019-05-26T20:22:57.711Z,99657.11
2019-05-26T20:25:26.873Z,99660.74
2019-05-26T20:27:56.015Z,99652.83
2019-05-26T20:30:25.140Z,99652.98
2019-05-26T20:32:54.256Z,99654.88
2019-05-26T20:35:23.424Z,99656.61
2019-05-26T20:37:52.574Z,99653.15
2019-05-26T20:40:21.706Z,99649.36
2019-05-26T20:42:50.891Z,99646.41
2019-05-26T20:45:20.202Z,99646.41
2019-05-26T20:47:49.361Z,99644.88
2019-05-26T20:50:28.577Z,99645.62
2019-05-26T20:52:49.611Z,99633.72
2019-05-26T20:55:19.047Z,99639.62
2019-05-26T20:57:48.325Z,99634.90
2019-05-26T21:00:18.971Z,99630.73
2019-05-26T21:02:48.092Z,99637.50
2019-05-26T21:05:17.514Z,99631.39
2019-05-26T21:07:46.652Z,99630.20
2019-05-26T21:10:15.809Z,99620.91
2019-05-26T21:12:45.069Z,99616.34
2019-05-26T21:15:14.678Z,99619.25
2019-05-26T21:17:43.805Z,99614.38
2019-05-26T21:20:13.955Z,99621.54
2019-05-26T21:22:43.108Z,99620.36
2019-05-26T21:25:14.260Z,99625.79
2019-05-26T21:27:43.396Z,99612.27
2019-05-26T21:30:12.624Z,99613.34
2019-05-26T21:32:41.745Z,99612.95
2019-05-26T21:35:11.176Z,99522.38
2019-05-26T21:37:40.354Z,99613.20
2019-05-26T21:40:11.302Z,99616.83
2019-05-26T21:42:40.559Z,99613.75
2019-05-26T21:45:10.202Z,99614.15
2019-05-26T21:47:39.413Z,99612.42
2019-05-26T21:50:09.052Z,99607.06
2019-05-26T21:52:38.184Z,99606.20
2019-05-26T21:55:07.534Z,99595.96
2019-05-26T21:57:36.667Z,99602.26
2019-05-26T22:00:07.956Z,99593.59
2019-05-26T22:02:37.102Z,99596.85
2019-05-26T22:05:06.639Z,99597.40
2019-05-26T22:07:35.757Z,99593.94
2019-05-26T22:10:05.116Z,99599.83
2019-05-26T22:12:34.288Z,99591.02
2019-05-26T22:15:03.432Z,99595.33
2019-05-26T22:17:32.539Z,99585.81
2019-05-26T22:20:01.721Z,99581.39
2019-05-26T22:22:30.842Z,99589.64
2019-05-26T22:24:59.974Z,99579.02
2019-05-26T22:27:29.093Z,99577.90
2019-05-26T22:29:58.224Z,99584.19
2019-05-26T22:32:27.434Z,99575.84
2019-05-26T22:34:56.546Z,99569.63
2019-05-26T22:37:25.695Z,99570.36
2019-05-26T22:39:54.810Z,99576.65
2019-05-26T22:42:25.294Z,99567.91
2019-05-26T22:44:54.431Z,99572.39
2019-05-26T22:47:23.563Z,99565.30
2019-05-26T22:49:52.682Z,99567.19
2019-05-26T22:52:21.803Z,99565.53
2019-05-26T22:54:50.938Z,99563.62
2019-05-26T22:57:20.063Z,99557.91
2019-05-26T22:59:49.208Z,99566.41
2019-05-26T23:02:18.355Z,99558.05
2019-05-26T23:04:47.479Z,99347.87
2019-05-26T23:07:16.594Z,99558.05
2019-05-26T23:09:45.754Z,99550.58
2019-05-26T23:12:14.861Z,99550.73
2019-05-26T23:14:43.980Z,99553.33
2019-05-26T23:17:13.077Z,99550.00
2019-05-26T23:19:42.223Z,99545.92
2019-05-26T23:22:11.340Z,99545.81
2019-05-26T23:24:40.467Z,99540.88
2019-05-26T23:27:09.574Z,99548.27
2019-05-26T23:29:38.693Z,99543.07
2019-05-26T23:32:07.805Z,99539.61
2019-05-26T23:34:36.947Z,99545.89
2019-05-26T23:37:06.263Z,99536.53
2019-05-26T23:39:35.351Z,99539.36
2019-05-26T23:42:04.529Z,99543.11
2019-05-26T23:44:33.596Z,99544.98
2019-05-26T23:47:02.741Z,99539.10
2019-05-26T23:49:31.895Z,99541.38
2019-05-26T23:52:01.011Z,99539.97
2019-05-26T23:54:30.170Z,99534.70
2019-05-26T23:56:59.293Z,99536.50
2019-05-26T23:59:28.430Z,99533.75
